Time;durP1;ratioP1;P1;durP2;ratioP2;P2;SDS_P1;SDS_P2;PMS_P1;PMS_P2;Temp;Humidity;BMP_temperature;BMP_pressure;BME280_temperature;BME280_humidity;BME280_pressure;Samples;Min_cycle;Max_cycle;Signal;HPM_P1;HPM_P2
2023/02/17 00:00:10;;;;;;;2.92;1.50;;;13.60;73.60;;;;;;4926216;29;20107;-81
2023/02/17 00:02:37;;;;;;;3.00;1.85;;;13.60;73.70;;;;;;4919673;29;20112;-82
2023/02/17 00:05:04;;;;;;;1.80;1.15;;;13.60;73.70;;;;;;4925974;29;20135;-82
2023/02/17 00:07:31;;;;;;;3.08;1.60;;;13.50;73.60;;;;;;4920573;29;20020;-82
2023/02/17 00:09:58;;;;;;;3.50;1.95;;;13.50;73.70;;;;;;4921351;29;20046;-82
2023/02/17 00:12:24;;;;;;;2.65;1.45;;;13.50;73.70;;;;;;4925582;29;20040;-82
2023/02/17 00:14:50;;;;;;;2.35;1.48;;;13.40;73.60;;;;;;4925480;29;20041;-83
2023/02/17 00:17:16;;;;;;;2.88;1.50;;;13.40;73.60;;;;;;4926089;29;20108;-82
2023/02/17 00:19:42;;;;;;;4.85;1.92;;;13.40;73.70;;;;;;4925628;29;20070;-82
2023/02/17 00:22:08;;;;;;;2.83;1.42;;;13.40;73.70;;;;;;4925435;29;20095;-81
2023/02/17 00:24:38;;;;;;;2.40;1.55;;;13.30;73.60;;;;;;4921019;29;20043;-82
2023/02/17 00:27:04;;;;;;;2.13;1.60;;;13.30;73.70;;;;;;4923898;29;20096;-81
2023/02/17 00:29:31;;;;;;;3.08;1.38;;;13.30;74.20;;;;;;4924365;29;20102;-81
2023/02/17 00:31:58;;;;;;;4.05;1.58;;;13.30;73.80;;;;;;4924793;29;20094;-82
2023/02/17 00:34:24;;;;;;;3.15;1.77;;;13.30;73.80;;;;;;4924727;29;20043;-82
2023/02/17 00:36:51;;;;;;;3.30;1.92;;;13.30;73.80;;;;;;4923004;29;20043;-83
2023/02/17 00:39:17;;;;;;;4.10;2.13;;;13.20;73.70;;;;;;4923663;29;20066;-82
2023/02/17 00:41:43;;;;;;;2.92;1.83;;;13.20;73.80;;;;;;4923249;29;20051;-82
2023/02/17 00:44:19;;;;;;;3.17;1.60;;;13.20;73.80;;;;;;4923808;29;20039;-82
2023/02/17 00:46:45;;;;;;;2.30;1.40;;;13.20;73.90;;;;;;4924266;29;20468;-81
2023/02/17 00:49:16;;;;;;;4.10;2.10;;;13.20;73.90;;;;;;4915460;29;20109;-81
2023/02/17 00:51:42;;;;;;;2.67;1.77;;;13.20;73.90;;;;;;4934456;29;20031;-81
2023/02/17 00:54:08;;;;;;;2.05;1.10;;;13.20;73.90;;;;;;4905422;29;20123;-81
2023/02/17 00:56:34;;;;;;;5.30;1.45;;;13.20;74.00;;;;;;4923435;29;20111;-81
2023/02/17 00:59:02;;;;;;;1.90;1.00;;;13.20;74.10;;;;;;4920408;29;20044;-81
2023/02/17 01:01:28;;;;;;;2.88;1.85;;;13.20;74.00;;;;;;4922963;29;20058;-81
2023/02/17 01:03:54;;;;;;;3.83;2.53;;;13.20;74.10;;;;;;4924649;29;20028;-82
2023/02/17 01:06:30;;;;;;;3.30;1.08;;;13.10;73.90;;;;;;4923394;29;20024;-81
2023/02/17 01:08:56;;;;;;;3.35;1.33;;;13.10;73.90;;;;;;4924179;29;20051;-82
2023/02/17 01:11:25;;;;;;;2.35;1.00;;;13.10;74.00;;;;;;4921094;29;20106;-81
2023/02/17 01:13:52;;;;;;;3.00;0.93;;;13.10;74.00;;;;;;4918278;29;20122;-80
2023/02/17 01:16:24;;;;;;;1.90;1.00;;;13.00;73.90;;;;;;4928032;29;20054;-80
2023/02/17 01:18:51;;;;;;;2.40;1.17;;;13.10;74.10;;;;;;4920021;28;20039;-81
2023/02/17 01:21:23;;;;;;;2.80;1.00;;;13.10;74.10;;;;;;4907771;29;20686;-81
2023/02/17 01:23:50;;;;;;;2.45;0.90;;;13.00;74.00;;;;;;4924083;29;20036;-83
2023/02/17 01:26:18;;;;;;;3.40;1.55;;;13.00;74.00;;;;;;4906672;29;20234;-81
2023/02/17 01:28:45;;;;;;;2.58;1.67;;;13.00;74.10;;;;;;4912459;29;20555;-82
2023/02/17 01:31:12;;;;;;;1.83;0.80;;;13.00;74.10;;;;;;4916962;29;20218;-81
2023/02/17 01:33:39;;;;;;;3.13;1.30;;;13.00;74.20;;;;;;4917842;29;20047;-81
2023/02/17 01:36:10;;;;;;;3.45;1.40;;;13.00;74.20;;;;;;4923956;29;20079;-80
2023/02/17 01:38:39;;;;;;;2.40;0.70;;;13.00;74.30;;;;;;4924954;29;20123;-80
2023/02/17 01:41:06;;;;;;;3.08;1.00;;;12.90;74.10;;;;;;4922540;29;20043;-82
2023/02/17 01:43:34;;;;;;;1.10;0.80;;;12.90;74.10;;;;;;4926108;29;20042;-81
2023/02/17 01:46:04;;;;;;;3.75;1.42;;;12.90;74.20;;;;;;4927385;29;20035;-81
2023/02/17 01:48:43;;;;;;;3.83;1.20;;;12.90;74.20;;;;;;4924022;29;20586;-80
2023/02/17 01:51:23;;;;;;;2.33;0.93;;;12.90;74.20;;;;;;4926571;29;20038;-80
2023/02/17 01:54:07;;;;;;;2.80;1.48;;;12.90;74.30;;;;;;4922468;29;20073;-80
2023/02/17 01:56:37;;;;;;;2.50;0.70;;;12.90;74.30;;;;;;4923933;29;20411;-79
2023/02/17 01:59:08;;;;;;;4.93;1.75;;;12.90;74.20;;;;;;4923443;29;20051;-80
2023/02/17 02:01:35;;;;;;;1.55;0.70;;;12.90;74.30;;;;;;4910832;29;20032;-81
2023/02/17 02:04:03;;;;;;;2.88;0.70;;;12.80;74.10;;;;;;4907618;29;20044;-81
2023/02/17 02:06:31;;;;;;;1.52;0.70;;;12.80;74.20;;;;;;4928255;29;20028;-82
2023/02/17 02:09:08;;;;;;;2.30;0.90;;;12.90;74.30;;;;;;4926121;29;20499;-82
2023/02/17 02:11:36;;;;;;;2.75;1.58;;;12.80;74.20;;;;;;4937998;28;20028;-83
2023/02/17 02:14:05;;;;;;;2.05;0.70;;;12.80;74.20;;;;;;4927343;29;20138;-82
2023/02/17 02:16:46;;;;;;;0.95;0.52;;;12.80;74.20;;;;;;4912318;29;20072;-83
2023/02/17 02:19:49;;;;;;;2.60;0.90;;;12.80;74.30;;;;;;4931112;28;20044;-83
2023/02/17 02:22:54;;;;;;;1.52;0.70;;;12.80;74.40;;;;;;4922410;29;20102;-84
2023/02/17 02:25:49;;;;;;;2.42;0.90;;;12.70;74.20;;;;;;4921261;29;20595;-84
2023/02/17 02:28:34;;;;;;;1.75;0.68;;;12.70;74.20;;;;;;4918970;29;20515;-84
2023/02/17 02:31:38;;;;;;;2.08;0.80;;;12.70;74.30;;;;;;4923416;29;20051;-82
2023/02/17 02:34:26;;;;;;;1.70;0.63;;;12.70;74.30;;;;;;4923491;29;20023;-81
2023/02/17 02:37:21;;;;;;;1.88;0.75;;;12.70;74.30;;;;;;4927297;29;20499;-82
2023/02/17 02:39:51;;;;;;;2.28;0.98;;;12.70;74.30;;;;;;4920697;29;20055;-82
2023/02/17 02:42:21;;;;;;;3.25;1.30;;;12.70;74.30;;;;;;4925089;29;20420;-82
2023/02/17 02:44:48;;;;;;;2.80;0.57;;;12.70;74.40;;;;;;4926081;29;20043;-82
2023/02/17 02:47:38;;;;;;;2.15;0.80;;;12.60;74.20;;;;;;4925136;29;20035;-81
2023/02/17 02:50:05;;;;;;;4.70;1.00;;;12.60;74.30;;;;;;4931388;29;20110;-83
2023/02/17 02:53:07;;;;;;;0.63;0.45;;;12.60;74.30;;;;;;4929781;29;20445;-82
2023/02/17 02:55:44;;;;;;;2.42;1.15;;;12.60;74.40;;;;;;4920837;29;20031;-82
2023/02/17 02:58:58;;;;;;;2.53;1.20;;;12.60;74.30;;;;;;4928889;29;20034;-84
2023/02/17 03:01:49;;;;;;;3.05;0.63;;;12.60;74.40;;;;;;4939198;28;20043;-84
2023/02/17 03:04:30;;;;;;;3.20;0.80;;;12.60;74.40;;;;;;4930025;29;20031;-82
2023/02/17 03:07:26;;;;;;;3.97;0.90;;;12.60;74.40;;;;;;4928991;29;20050;-82
2023/02/17 03:09:54;;;;;;;1.15;0.40;;;12.60;74.40;;;;;;4925738;29;20132;-84
2023/02/17 03:12:22;;;;;;;2.60;0.50;;;12.60;74.40;;;;;;4911373;29;20032;-85
2023/02/17 03:14:51;;;;;;;1.15;0.60;;;12.50;74.30;;;;;;4930381;29;20031;-84
2023/02/17 03:17:17;;;;;;;2.70;1.35;;;12.50;74.30;;;;;;4929396;29;20032;-84
2023/02/17 03:19:48;;;;;;;1.55;0.70;;;12.50;74.40;;;;;;4923084;29;20557;-83
2023/02/17 03:22:23;;;;;;;1.05;0.57;;;12.50;74.40;;;;;;4929983;29;20452;-83
2023/02/17 03:24:49;;;;;;;2.15;0.60;;;12.50;74.40;;;;;;4921313;29;20063;-82
2023/02/17 03:27:14;;;;;;;2.05;1.17;;;12.50;74.40;;;;;;4927861;29;20171;-83
2023/02/17 03:29:41;;;;;;;1.83;0.60;;;12.50;74.50;;;;;;4920560;29;20115;-83
2023/02/17 03:32:07;;;;;;;2.10;0.90;;;12.40;74.30;;;;;;4930730;29;20024;-84
2023/02/17 03:34:33;;;;;;;1.17;0.65;;;12.40;74.40;;;;;;4930759;29;20039;-83
2023/02/17 03:36:59;;;;;;;1.65;0.60;;;12.40;74.40;;;;;;4931100;29;20032;-83
2023/02/17 03:39:26;;;;;;;2.15;0.73;;;12.40;74.40;;;;;;4930272;29;20047;-83
2023/02/17 03:41:52;;;;;;;2.38;0.80;;;12.40;74.50;;;;;;4929268;29;20503;-84
2023/02/17 03:44:18;;;;;;;2.50;0.63;;;12.40;74.50;;;;;;4926793;29;20046;-84
2023/02/17 03:46:45;;;;;;;3.58;0.80;;;12.40;74.50;;;;;;4941979;29;20035;-84
2023/02/17 03:49:11;;;;;;;2.10;0.77;;;12.40;74.50;;;;;;4930844;29;20036;-83
2023/02/17 03:51:38;;;;;;;3.00;0.73;;;12.40;74.50;;;;;;4928700;29;20039;-83
2023/02/17 03:54:04;;;;;;;2.70;0.75;;;12.40;74.50;;;;;;4930455;29;20039;-83
2023/02/17 03:56:30;;;;;;;3.35;0.90;;;12.40;74.60;;;;;;4930756;29;20078;-83
2023/02/17 03:58:56;;;;;;;1.95;0.98;;;12.40;74.60;;;;;;4918113;29;20081;-83
2023/02/17 04:01:22;;;;;;;3.25;1.13;;;12.40;74.60;;;;;;4928153;29;20521;-82
2023/02/17 04:03:48;;;;;;;2.78;0.98;;;12.40;74.60;;;;;;4932399;29;20827;-81
2023/02/17 04:06:14;;;;;;;4.60;1.95;;;12.40;74.70;;;;;;4930176;29;20130;-82
2023/02/17 04:08:40;;;;;;;2.83;1.40;;;12.30;74.50;;;;;;4928805;29;20035;-82
2023/02/17 04:11:07;;;;;;;3.38;1.30;;;12.40;74.70;;;;;;4928272;29;20028;-81
2023/02/17 04:13:34;;;;;;;3.58;1.58;;;12.40;74.70;;;;;;4924168;29;20035;-84
2023/02/17 04:16:00;;;;;;;1.65;1.27;;;12.30;74.60;;;;;;4930243;29;20565;-83
2023/02/17 04:18:27;;;;;;;4.72;1.13;;;12.30;74.60;;;;;;4924821;29;20465;-83
2023/02/17 04:20:53;;;;;;;1.90;1.10;;;12.40;74.80;;;;;;4927767;29;20074;-82
2023/02/17 04:23:19;;;;;;;4.18;1.30;;;12.30;74.60;;;;;;4930008;29;20047;-82
2023/02/17 04:25:46;;;;;;;3.25;1.10;;;12.30;74.60;;;;;;4924547;29;20039;-84
2023/02/17 04:28:13;;;;;;;3.50;1.10;;;12.30;74.60;;;;;;4924132;29;20038;-81
2023/02/17 04:30:43;;;;;;;5.90;2.30;;;12.30;74.70;;;;;;4928640;29;20083;-83
2023/02/17 04:33:09;;;;;;;3.40;1.25;;;12.30;74.70;;;;;;4929490;29;20043;-83
2023/02/17 04:35:34;;;;;;;4.05;1.33;;;12.30;74.70;;;;;;4922300;29;20032;-81
2023/02/17 04:38:00;;;;;;;6.45;2.15;;;12.30;74.70;;;;;;4930038;29;20028;-81
2023/02/17 04:40:26;;;;;;;3.38;1.00;;;12.30;74.70;;;;;;4926564;29;20439;-80
2023/02/17 04:42:52;;;;;;;4.82;1.90;;;12.30;74.70;;;;;;4928185;29;20039;-81
2023/02/17 04:45:18;;;;;;;3.40;1.40;;;12.30;74.80;;;;;;4929694;29;20090;-81
2023/02/17 04:47:44;;;;;;;4.45;1.13;;;12.30;74.80;;;;;;4929657;29;20050;-80
2023/02/17 04:50:10;;;;;;;2.85;1.42;;;12.30;74.80;;;;;;4927648;29;20391;-81
2023/02/17 04:52:37;;;;;;;3.60;1.40;;;12.30;74.80;;;;;;4920628;29;20058;-80
2023/02/17 04:55:04;;;;;;;3.22;1.10;;;12.30;74.80;;;;;;4928008;29;20043;-81
2023/02/17 04:57:30;;;;;;;3.50;1.38;;;12.30;74.80;;;;;;4926506;29;20091;-81
2023/02/17 04:59:55;;;;;;;4.10;1.17;;;12.30;74.80;;;;;;4928458;29;20040;-81
2023/02/17 05:02:21;;;;;;;3.67;1.70;;;12.30;74.90;;;;;;4938662;29;20055;-81
2023/02/17 05:04:47;;;;;;;2.80;1.10;;;12.30;74.90;;;;;;4927108;28;20135;-84
2023/02/17 05:07:13;;;;;;;5.55;2.35;;;12.30;74.90;;;;;;4928601;29;20039;-83
2023/02/17 05:09:39;;;;;;;6.65;2.45;;;12.30;74.90;;;;;;4917175;29;20123;-80
2023/02/17 05:12:06;;;;;;;6.03;1.23;;;12.30;74.90;;;;;;4927590;29;20044;-85
2023/02/17 05:14:32;;;;;;;5.80;1.30;;;12.30;74.90;;;;;;4929763;29;20038;-88
2023/02/17 05:16:58;;;;;;;4.57;2.53;;;12.30;75.00;;;;;;4928169;29;20126;-84
2023/02/17 05:19:24;;;;;;;3.67;0.85;;;12.30;75.00;;;;;;4931329;29;20044;-82
2023/02/17 05:21:50;;;;;;;6.55;1.15;;;12.30;75.00;;;;;;4933550;29;20119;-83
2023/02/17 05:24:16;;;;;;;4.25;1.30;;;12.30;75.00;;;;;;4930319;29;20035;-81
2023/02/17 05:26:43;;;;;;;5.35;1.33;;;12.30;75.00;;;;;;4932448;29;20032;-81
2023/02/17 05:29:08;;;;;;;2.20;0.90;;;12.30;75.00;;;;;;4922424;29;20056;-81
2023/02/17 05:31:34;;;;;;;3.28;0.90;;;12.30;75.00;;;;;;4927948;29;20034;-80
2023/02/17 05:34:00;;;;;;;5.03;1.45;;;12.30;75.00;;;;;;4932951;29;20117;-82
2023/02/17 05:36:26;;;;;;;3.92;0.85;;;12.30;75.10;;;;;;4928437;29;20488;-81
2023/02/17 05:38:52;;;;;;;4.03;1.10;;;12.30;75.10;;;;;;4931213;29;20027;-81
2023/02/17 05:41:18;;;;;;;2.15;1.02;;;12.30;75.10;;;;;;4931075;29;20074;-82
2023/02/17 05:43:45;;;;;;;6.28;1.27;;;12.30;75.10;;;;;;4932590;29;20040;-81
2023/02/17 05:46:11;;;;;;;1.00;0.60;;;12.40;75.30;;;;;;4933215;29;20024;-83
2023/02/17 05:48:37;;;;;;;7.30;1.15;;;12.30;75.10;;;;;;4927430;29;20436;-81
2023/02/17 05:51:04;;;;;;;5.35;1.00;;;12.40;75.40;;;;;;4927215;29;20042;-82
2023/02/17 05:53:30;;;;;;;2.95;1.20;;;12.40;75.30;;;;;;4926987;29;20043;-79
2023/02/17 05:55:56;;;;;;;4.10;1.08;;;12.30;75.10;;;;;;4926413;29;20028;-81
2023/02/17 05:58:22;;;;;;;4.75;0.90;;;12.30;75.10;;;;;;4925139;29;20043;-80
2023/02/17 06:00:49;;;;;;;5.47;1.00;;;12.40;75.40;;;;;;4928638;29;20058;-84
2023/02/17 06:03:15;;;;;;;5.60;1.70;;;12.40;75.40;;;;;;4928742;29;20086;-83
2023/02/17 06:05:41;;;;;;;2.53;0.85;;;12.40;75.40;;;;;;4924287;29;20038;-82
2023/02/17 06:08:07;;;;;;;3.15;1.15;;;12.40;75.40;;;;;;4926801;29;20103;-82
2023/02/17 06:10:33;;;;;;;3.65;1.00;;;12.40;75.40;;;;;;4927010;29;20066;-82
2023/02/17 06:12:59;;;;;;;2.78;0.98;;;12.40;75.40;;;;;;4922353;29;20499;-81
2023/02/17 06:15:25;;;;;;;4.05;0.85;;;12.40;75.40;;;;;;4928653;29;20064;-81
2023/02/17 06:17:51;;;;;;;3.05;0.93;;;12.40;75.40;;;;;;4924298;29;20040;-81
2023/02/17 06:20:17;;;;;;;4.80;1.00;;;12.40;75.40;;;;;;4921411;29;20051;-80
2023/02/17 06:22:43;;;;;;;2.13;0.73;;;12.40;75.50;;;;;;4926088;29;20062;-81
2023/02/17 06:25:09;;;;;;;3.78;0.80;;;12.40;75.50;;;;;;4927975;29;20059;-80
2023/02/17 06:27:35;;;;;;;3.45;1.55;;;12.40;75.50;;;;;;4925246;29;20028;-81
2023/02/17 06:30:01;;;;;;;5.07;1.08;;;12.40;75.50;;;;;;4925851;29;20500;-84
2023/02/17 06:32:27;;;;;;;1.98;0.80;;;12.40;75.50;;;;;;4904279;29;20032;-81
2023/02/17 06:34:53;;;;;;;4.05;1.17;;;12.40;75.50;;;;;;4924046;29;20039;-82
2023/02/17 06:37:19;;;;;;;3.95;2.15;;;12.40;75.50;;;;;;4926715;29;20428;-84
2023/02/17 06:39:45;;;;;;;3.63;1.23;;;12.40;75.50;;;;;;4924949;29;20039;-82
2023/02/17 06:42:11;;;;;;;4.30;0.93;;;12.40;75.50;;;;;;4922950;29;20645;-90
2023/02/17 06:44:37;;;;;;;4.25;2.38;;;12.40;75.50;;;;;;4920340;29;20445;-87
2023/02/17 06:47:03;;;;;;;4.40;1.20;;;12.40;75.50;;;;;;4927785;29;20440;-90
2023/02/17 06:49:29;;;;;;;4.82;1.63;;;12.40;75.50;;;;;;4924601;29;20349;-88
2023/02/17 06:51:55;;;;;;;3.35;1.30;;;12.40;75.50;;;;;;4925822;28;20020;-85
2023/02/17 06:54:21;;;;;;;7.60;1.45;;;12.40;75.70;;;;;;4924947;29;20040;-78
2023/02/17 06:56:46;;;;;;;5.82;1.40;;;12.60;76.70;;;;;;4924157;29;20059;-80
2023/02/17 06:59:12;;;;;;;3.53;1.63;;;12.70;77.00;;;;;;4919912;29;20444;-83
2023/02/17 07:01:38;;;;;;;3.67;1.00;;;12.80;77.20;;;;;;4925196;29;20449;-87
2023/02/17 07:04:04;;;;;;;4.88;1.25;;;12.90;77.60;;;;;;4925547;29;20039;-89
2023/02/17 07:06:31;;;;;;;6.28;1.58;;;13.10;78.10;;;;;;4921339;29;20090;-83
2023/02/17 07:08:57;;;;;;;7.07;1.30;;;13.30;78.50;;;;;;4923467;29;20035;-85
2023/02/17 07:11:23;;;;;;;3.80;1.30;;;13.50;78.70;;;;;;4922471;29;20041;-83
2023/02/17 07:13:49;;;;;;;3.22;1.13;;;13.70;78.90;;;;;;4925658;29;20107;-82
2023/02/17 07:16:15;;;;;;;5.00;1.08;;;13.90;79.00;;;;;;4920532;29;20035;-82
2023/02/17 07:18:41;;;;;;;4.78;1.10;;;14.00;79.30;;;;;;4923723;29;20039;-91
2023/02/17 07:21:08;;;;;;;5.97;1.38;;;14.10;78.60;;;;;;4921403;29;20659;-85
2023/02/17 07:23:35;;;;;;;3.50;1.05;;;14.10;78.40;;;;;;4923248;29;20043;-80
2023/02/17 07:26:03;;;;;;;4.10;1.30;;;14.10;78.20;;;;;;4923234;29;20047;-80
2023/02/17 07:28:29;;;;;;;6.97;2.35;;;14.10;78.20;;;;;;4917860;29;20035;-79
2023/02/17 07:30:54;;;;;;;4.63;1.10;;;14.00;78.00;;;;;;4921203;29;20891;-79
2023/02/17 07:33:20;;;;;;;3.58;1.17;;;14.00;78.00;;;;;;4921653;29;20048;-82
2023/02/17 07:35:47;;;;;;;6.57;1.50;;;13.90;77.80;;;;;;4920869;29;20062;-81
2023/02/17 07:38:13;;;;;;;3.22;1.20;;;13.80;77.60;;;;;;4922978;29;20047;-81
2023/02/17 07:40:39;;;;;;;4.45;1.13;;;13.80;77.70;;;;;;4919311;29;20070;-82
2023/02/17 07:43:05;;;;;;;5.15;1.50;;;13.70;77.50;;;;;;4923190;29;20047;-83
2023/02/17 07:45:32;;;;;;;3.78;1.52;;;13.60;77.30;;;;;;4917632;29;20058;-83
2023/02/17 07:47:58;;;;;;;3.33;0.90;;;13.60;77.40;;;;;;4920715;29;20504;-83
2023/02/17 07:50:23;;;;;;;5.22;1.17;;;13.50;77.20;;;;;;4918331;29;20035;-85
2023/02/17 07:52:50;;;;;;;7.60;1.05;;;13.50;77.30;;;;;;4922139;29;20032;-87
2023/02/17 07:55:16;;;;;;;3.38;1.27;;;13.40;77.10;;;;;;4921493;29;20039;-86
2023/02/17 07:57:42;;;;;;;2.38;1.10;;;13.40;77.10;;;;;;4922327;29;20059;-89
2023/02/17 08:00:08;;;;;;;4.07;1.30;;;13.30;76.90;;;;;;4922643;29;20099;-87
2023/02/17 08:02:38;;;;;;;4.25;0.93;;;13.30;76.90;;;;;;4924958;29;20652;-89
2023/02/17 08:05:04;;;;;;;4.22;0.93;;;13.30;76.90;;;;;;4921949;29;20126;-86
2023/02/17 08:07:31;;;;;;;3.80;1.20;;;13.30;76.90;;;;;;4918835;29;20052;-87
2023/02/17 08:15:27;;;;;;;3.83;0.95;;;13.20;76.60;;;;;;4921361;29;20455;-87
2023/02/17 08:17:52;;;;;;;3.55;1.02;;;13.20;76.60;;;;;;4922297;29;20091;-86
2023/02/17 08:20:18;;;;;;;1.90;0.73;;;13.20;76.60;;;;;;4924268;29;20052;-86
2023/02/17 08:22:44;;;;;;;3.33;0.93;;;13.20;76.50;;;;;;4923123;29;20440;-86
2023/02/17 08:25:10;;;;;;;4.28;1.08;;;13.20;76.50;;;;;;4923743;29;20045;-80
2023/02/17 08:27:36;;;;;;;2.95;0.98;;;13.20;76.50;;;;;;4912755;29;20043;-79
2023/02/17 08:30:02;;;;;;;3.33;0.80;;;13.20;76.50;;;;;;4921270;29;20079;-79
2023/02/17 08:32:28;;;;;;;1.73;0.75;;;13.20;76.40;;;;;;4922385;29;20031;-84
2023/02/17 08:34:55;;;;;;;2.50;0.75;;;13.20;76.30;;;;;;4919244;29;20127;-81
2023/02/17 08:37:21;;;;;;;2.63;0.82;;;13.20;76.30;;;;;;4922792;29;20032;-82
2023/02/17 08:39:47;;;;;;;3.25;1.20;;;13.20;76.30;;;;;;4913291;29;20042;-85
2023/02/17 08:42:13;;;;;;;5.68;2.55;;;13.20;76.30;;;;;;4916230;29;20035;-84
2023/02/17 08:44:39;;;;;;;3.28;0.88;;;13.20;76.20;;;;;;4919006;29;20043;-84
2023/02/17 08:47:06;;;;;;;2.00;0.70;;;13.20;76.20;;;;;;4922821;29;20034;-83
2023/02/17 08:49:32;;;;;;;2.05;0.88;;;13.20;76.10;;;;;;4921336;29;20154;-82
2023/02/17 08:51:59;;;;;;;1.67;1.10;;;13.30;76.20;;;;;;4919063;29;20564;-82
2023/02/17 08:54:24;;;;;;;3.67;1.02;;;13.30;76.70;;;;;;4921465;29;20456;-83
2023/02/17 08:56:50;;;;;;;3.88;1.25;;;13.30;76.10;;;;;;4921911;29;20031;-84
2023/02/17 08:59:16;;;;;;;8.00;1.85;;;13.30;76.00;;;;;;4915846;29;20062;-83
2023/02/17 09:01:43;;;;;;;2.08;0.82;;;13.40;76.10;;;;;;4922302;29;20114;-81
2023/02/17 09:04:11;;;;;;;1.98;0.50;;;13.40;76.00;;;;;;4920338;29;20664;-94
2023/02/17 09:06:50;;;;;;;3.70;1.02;;;13.40;76.00;;;;;;4921749;29;20504;-84
2023/02/17 09:09:19;;;;;;;1.85;0.82;;;13.40;75.90;;;;;;4911314;29;20059;-86
2023/02/17 09:11:45;;;;;;;2.95;1.20;;;13.50;76.10;;;;;;4918354;29;20040;-84
2023/02/17 09:14:11;;;;;;;3.75;1.20;;;13.50;76.00;;;;;;4918059;29;20039;-83
2023/02/17 09:16:37;;;;;;;3.00;0.60;;;13.60;76.10;;;;;;4921637;29;20036;-94
2023/02/17 09:19:03;;;;;;;4.43;1.20;;;13.60;75.90;;;;;;4913953;29;20219;-78
2023/02/17 09:21:29;;;;;;;2.33;0.88;;;13.70;76.00;;;;;;4913149;29;20034;-79
2023/02/17 09:23:55;;;;;;;3.08;0.90;;;13.70;75.90;;;;;;4922218;29;20043;-80
2023/02/17 09:26:21;;;;;;;1.80;0.80;;;13.80;76.00;;;;;;4919220;29;20388;-80
2023/02/17 09:28:48;;;;;;;2.17;1.23;;;13.80;75.90;;;;;;4920906;29;20046;-81
2023/02/17 09:31:18;;;;;;;3.25;0.90;;;13.80;75.80;;;;;;4922123;29;20107;-80
2023/02/17 09:33:46;;;;;;;3.80;1.20;;;13.90;75.90;;;;;;4921259;29;20046;-80
2023/02/17 09:36:15;;;;;;;3.35;0.93;;;13.90;75.80;;;;;;4921372;29;20042;-82
2023/02/17 09:38:41;;;;;;;0.75;0.60;;;13.90;75.70;;;;;;4922810;29;20043;-82
2023/02/17 09:41:13;;;;;;;1.50;0.50;;;14.00;75.80;;;;;;4920669;29;20225;-81
2023/02/17 09:43:39;;;;;;;3.80;1.20;;;14.00;75.70;;;;;;4920774;29;20172;-80
2023/02/17 09:46:15;;;;;;;1.75;0.60;;;14.10;75.80;;;;;;4919430;29;20082;-80
2023/02/17 09:48:43;;;;;;;6.38;0.98;;;14.20;75.80;;;;;;4920756;29;20576;-87
2023/02/17 09:51:41;;;;;;;2.05;0.52;;;14.20;75.70;;;;;;4921261;29;20035;-77
2023/02/17 09:54:11;;;;;;;4.22;1.08;;;14.30;75.70;;;;;;4918437;29;20412;-78
2023/02/17 09:56:40;;;;;;;1.45;1.15;;;14.30;75.50;;;;;;4921455;29;20503;-79
2023/02/17 09:59:28;;;;;;;3.13;0.60;;;14.40;75.60;;;;;;4912490;29;20043;-78
2023/02/17 10:01:55;;;;;;;2.47;1.08;;;14.50;75.70;;;;;;4922402;29;20472;-79
2023/02/17 10:04:38;;;;;;;1.33;0.57;;;14.50;75.50;;;;;;4919998;29;20123;-79
2023/02/17 10:07:13;;;;;;;2.50;0.77;;;14.60;75.50;;;;;;4924193;29;20031;-80
2023/02/17 10:09:49;;;;;;;2.13;0.63;;;14.60;75.40;;;;;;4923935;29;20623;-81
2023/02/17 10:12:22;;;;;;;3.00;0.95;;;14.70;75.40;;;;;;4918562;29;20111;-84
2023/02/17 10:15:00;;;;;;;2.00;0.70;;;14.80;76.10;;;;;;4925012;29;20467;-83
2023/02/17 10:17:44;;;;;;;2.85;1.13;;;14.80;75.40;;;;;;4922695;29;20036;-83
2023/02/17 10:20:27;;;;;;;3.72;0.95;;;14.80;75.30;;;;;;4921386;29;20043;-82
2023/02/17 10:23:06;;;;;;;2.13;0.75;;;14.80;75.20;;;;;;4923787;29;20460;-81
2023/02/17 10:25:41;;;;;;;2.38;1.02;;;14.90;75.40;;;;;;4923597;29;20122;-82
2023/02/17 10:28:09;;;;;;;2.53;0.80;;;14.90;75.30;;;;;;4923246;29;20122;-82
2023/02/17 10:30:41;;;;;;;3.88;1.30;;;14.90;75.30;;;;;;4920451;29;20055;-81
2023/02/17 10:33:28;;;;;;;2.50;1.00;;;14.90;75.20;;;;;;4924887;29;20047;-81
2023/02/17 10:36:21;;;;;;;1.65;0.70;;;15.00;75.30;;;;;;4920077;29;20520;-83
2023/02/17 10:38:52;;;;;;;3.28;1.10;;;15.10;75.40;;;;;;4924659;29;20040;-82
2023/02/17 10:41:25;;;;;;;3.25;1.00;;;15.20;75.30;;;;;;4924681;29;20531;-82
2023/02/17 10:43:52;;;;;;;1.67;0.60;;;15.30;75.20;;;;;;4923123;29;20036;-82
2023/02/17 10:46:26;;;;;;;5.05;1.45;;;15.50;75.20;;;;;;4922189;29;20137;-78
2023/02/17 10:48:54;;;;;;;5.30;1.00;;;15.60;75.00;;;;;;4919291;29;20118;-79
2023/02/17 10:51:29;;;;;;;2.50;0.75;;;15.70;74.90;;;;;;4923367;29;20023;-79
2023/02/17 10:54:21;;;;;;;4.18;1.08;;;15.80;74.80;;;;;;4917429;29;20102;-83
2023/02/17 10:56:52;;;;;;;3.03;1.35;;;16.00;74.80;;;;;;4918075;29;20044;-82
2023/02/17 10:59:43;;;;;;;3.10;1.10;;;16.10;74.80;;;;;;4920914;29;20050;-80
2023/02/17 11:02:14;;;;;;;3.83;1.08;;;16.30;74.70;;;;;;4922721;28;20052;-80
2023/02/17 11:04:42;;;;;;;2.60;1.10;;;16.40;74.50;;;;;;4925257;29;20499;-81
2023/02/17 11:07:14;;;;;;;2.95;1.08;;;16.50;74.40;;;;;;4924560;29;20036;-80
2023/02/17 11:09:49;;;;;;;5.83;1.37;;;16.60;74.20;;;;;;4923499;29;20563;-82
2023/02/17 11:12:21;;;;;;;2.80;1.45;;;16.80;74.20;;;;;;4921460;28;20075;-81
2023/02/17 11:14:50;;;;;;;2.60;1.03;;;16.90;74.10;;;;;;4925562;29;20047;-83
2023/02/17 11:17:30;;;;;;;6.65;1.75;;;16.90;73.90;;;;;;4922975;29;20289;-83
2023/02/17 11:20:07;;;;;;;3.08;1.00;;;17.00;73.90;;;;;;4922250;29;20632;-80
2023/02/17 11:22:39;;;;;;;5.32;1.15;;;17.00;73.70;;;;;;4922792;28;20107;-81
2023/02/17 11:25:31;;;;;;;4.90;1.25;;;17.10;73.70;;;;;;4919740;29;20042;-81
2023/02/17 11:28:09;;;;;;;2.88;0.93;;;17.20;73.60;;;;;;4917616;29;20135;-80
2023/02/17 11:30:37;;;;;;;3.42;1.10;;;17.30;73.70;;;;;;4920824;29;20055;-81
2023/02/17 11:33:13;;;;;;;5.18;1.10;;;17.40;73.60;;;;;;4923974;28;20028;-80
2023/02/17 11:35:40;;;;;;;3.47;1.15;;;17.50;73.40;;;;;;4924595;29;20051;-81
2023/02/17 11:38:12;;;;;;;3.33;1.20;;;17.60;73.40;;;;;;4924256;29;20048;-80
2023/02/17 11:40:38;;;;;;;2.50;0.90;;;17.60;73.10;;;;;;4919937;29;20110;-80
2023/02/17 11:43:05;;;;;;;3.55;1.13;;;17.70;73.20;;;;;;4920582;29;20086;-78
2023/02/17 11:45:54;;;;;;;2.05;0.88;;;17.70;73.00;;;;;;4925096;29;20043;-81
2023/02/17 11:48:38;;;;;;;3.20;1.25;;;17.90;73.00;;;;;;4922936;29;20035;-81
2023/02/17 11:51:38;;;;;;;2.72;0.80;;;18.00;73.00;;;;;;4921221;29;20440;-83
2023/02/17 11:54:13;;;;;;;3.28;1.42;;;18.00;72.60;;;;;;4919805;29;20055;-82
2023/02/17 11:56:50;;;;;;;1.17;0.90;;;18.10;72.70;;;;;;4923324;29;20263;-80
2023/02/17 11:59:41;;;;;;;2.63;1.08;;;18.10;72.40;;;;;;4922121;29;20086;-83
2023/02/17 12:02:13;;;;;;;3.05;0.98;;;18.20;72.30;;;;;;4922000;29;20035;-80
2023/02/17 12:04:57;;;;;;;3.45;1.20;;;18.30;72.50;;;;;;4923398;29;20110;-78
2023/02/17 12:07:37;;;;;;;2.55;0.90;;;18.30;72.10;;;;;;4923613;29;20480;-81
2023/02/17 12:10:32;;;;;;;2.42;1.33;;;18.30;72.10;;;;;;4923736;29;20942;-84
2023/02/17 12:13:06;;;;;;;4.10;1.00;;;18.50;72.10;;;;;;4917271;29;20063;-80
2023/02/17 12:15:43;;;;;;;2.58;0.90;;;18.50;71.90;;;;;;4919442;29;20538;-85
2023/02/17 12:18:12;;;;;;;3.38;1.15;;;18.60;71.90;;;;;;4915120;29;20047;-86
2023/02/17 12:20:53;;;;;;;3.30;1.05;;;18.60;71.80;;;;;;4923691;29;20055;-83
2023/02/17 12:23:44;;;;;;;4.60;1.50;;;18.70;71.70;;;;;;4922035;29;20038;-84
2023/02/17 12:26:20;;;;;;;2.80;0.95;;;18.80;71.50;;;;;;4925713;29;20058;-86
2023/02/17 12:28:50;;;;;;;4.93;1.30;;;18.90;71.70;;;;;;4929091;29;20034;-85
2023/02/17 12:31:53;;;;;;;2.15;1.23;;;19.00;71.60;;;;;;4931870;29;20091;-85
2023/02/17 12:34:40;;;;;;;2.47;1.20;;;19.00;71.10;;;;;;4928151;29;20043;-84
2023/02/17 12:37:19;;;;;;;1.83;0.90;;;19.00;71.10;;;;;;4926258;29;20095;-85
2023/02/17 12:39:51;;;;;;;6.53;1.40;;;18.90;71.00;;;;;;4915129;29;20048;-82
2023/02/17 12:42:28;;;;;;;2.33;1.05;;;19.00;71.10;;;;;;4923585;29;20081;-89
2023/02/17 12:45:14;;;;;;;3.58;1.30;;;19.00;71.00;;;;;;4931031;29;20559;-90
2023/02/17 12:48:12;;;;;;;3.33;1.10;;;19.10;71.00;;;;;;4917431;29;20035;-88
2023/02/17 12:50:51;;;;;;;4.55;1.13;;;19.10;71.30;;;;;;4915622;29;20044;-86
2023/02/17 12:53:29;;;;;;;4.97;1.92;;;19.20;70.70;;;;;;4923815;29;20064;-85
2023/02/17 12:56:00;;;;;;;3.92;1.20;;;19.20;70.60;;;;;;4919017;29;20040;-86
2023/02/17 12:58:30;;;;;;;2.22;0.93;;;19.20;70.60;;;;;;4918540;29;20106;-84
2023/02/17 13:01:06;;;;;;;5.00;1.88;;;19.20;70.40;;;;;;4918992;29;20131;-84
2023/02/17 13:03:33;;;;;;;3.08;1.42;;;19.30;70.50;;;;;;4918683;29;20471;-84
2023/02/17 13:06:27;;;;;;;3.17;0.82;;;19.30;70.30;;;;;;4921996;29;20035;-85
2023/02/17 13:08:57;;;;;;;4.47;1.77;;;19.30;70.00;;;;;;4922537;29;20035;-86
2023/02/17 13:11:29;;;;;;;1.90;1.13;;;19.30;70.10;;;;;;4914197;29;20199;-85